sensor_id;sensor_type;location;lat;lon;timestamp;P1;durP1;ratioP1;P2;durP2;ratioP2
45011;SDS011;63444;48.148;11.542;2023-05-16T00:00:51;3.90;;;3.37;;
45011;SDS011;63444;48.148;11.542;2023-05-16T00:03:17;4.50;;;3.20;;
45011;SDS011;63444;48.148;11.542;2023-05-16T00:05:43;4.47;;;4.07;;
45011;SDS011;63444;48.148;11.542;2023-05-16T00:08:10;6.70;;;4.60;;
45011;SDS011;63444;48.148;11.542;2023-05-16T00:10:35;4.20;;;3.80;;
45011;SDS011;63444;48.148;11.542;2023-05-16T00:13:01;4.43;;;4.00;;
45011;SDS011;63444;48.148;11.542;2023-05-16T00:15:27;3.47;;;3.20;;
45011;SDS011;63444;48.148;11.542;2023-05-16T00:17:54;3.57;;;3.27;;
45011;SDS011;63444;48.148;11.542;2023-05-16T00:20:24;4.47;;;3.60;;
45011;SDS011;63444;48.148;11.542;2023-05-16T00:22:50;4.63;;;3.40;;
45011;SDS011;63444;48.148;11.542;2023-05-16T00:25:16;4.90;;;3.73;;
45011;SDS011;63444;48.148;11.542;2023-05-16T00:27:42;4.13;;;3.73;;
45011;SDS011;63444;48.148;11.542;2023-05-16T00:30:08;3.90;;;3.60;;
45011;SDS011;63444;48.148;11.542;2023-05-16T00:32:34;3.60;;;3.30;;
45011;SDS011;63444;48.148;11.542;2023-05-16T00:35:00;3.70;;;3.40;;
45011;SDS011;63444;48.148;11.542;2023-05-16T00:37:26;4.43;;;3.33;;
45011;SDS011;63444;48.148;11.542;2023-05-16T00:39:52;3.80;;;3.50;;
45011;SDS011;63444;48.148;11.542;2023-05-16T00:42:18;3.97;;;3.57;;
45011;SDS011;63444;48.148;11.542;2023-05-16T00:44:44;4.60;;;4.20;;
45011;SDS011;63444;48.148;11.542;2023-05-16T00:47:10;4.20;;;3.80;;
45011;SDS011;63444;48.148;11.542;2023-05-16T00:49:36;4.17;;;3.80;;
45011;SDS011;63444;48.148;11.542;2023-05-16T00:52:02;4.67;;;4.10;;
45011;SDS011;63444;48.148;11.542;2023-05-16T00:54:29;3.50;;;3.20;;
45011;SDS011;63444;48.148;11.542;2023-05-16T00:56:55;4.20;;;3.80;;
45011;SDS011;63444;48.148;11.542;2023-05-16T00:59:22;3.77;;;3.47;;
45011;SDS011;63444;48.148;11.542;2023-05-16T01:01:48;4.57;;;4.17;;
45011;SDS011;63444;48.148;11.542;2023-05-16T01:04:15;4.63;;;3.80;;
45011;SDS011;63444;48.148;11.542;2023-05-16T01:06:42;3.70;;;3.40;;
45011;SDS011;63444;48.148;11.542;2023-05-16T01:09:08;4.00;;;3.60;;
45011;SDS011;63444;48.148;11.542;2023-05-16T01:14:16;4.67;;;4.27;;
45011;SDS011;63444;48.148;11.542;2023-05-16T01:27:29;4.57;;;4.17;;
45011;SDS011;63444;48.148;11.542;2023-05-16T01:29:59;4.00;;;3.60;;
45011;SDS011;63444;48.148;11.542;2023-05-16T01:32:24;4.10;;;3.73;;
45011;SDS011;63444;48.148;11.542;2023-05-16T01:34:50;4.90;;;4.50;;
45011;SDS011;63444;48.148;11.542;2023-05-16T01:37:18;4.70;;;4.30;;
45011;SDS011;63444;48.148;11.542;2023-05-16T01:39:55;4.47;;;4.07;;
45011;SDS011;63444;48.148;11.542;2023-05-16T01:42:31;5.27;;;4.77;;
45011;SDS011;63444;48.148;11.542;2023-05-16T01:47:55;4.30;;;3.90;;
45011;SDS011;63444;48.148;11.542;2023-05-16T01:50:28;4.60;;;4.20;;
45011;SDS011;63444;48.148;11.542;2023-05-16T01:53:07;4.67;;;4.27;;
45011;SDS011;63444;48.148;11.542;2023-05-16T01:55:50;4.50;;;4.10;;
45011;SDS011;63444;48.148;11.542;2023-05-16T01:58:17;5.00;;;4.50;;
45011;SDS011;63444;48.148;11.542;2023-05-16T02:00:46;5.07;;;4.57;;
45011;SDS011;63444;48.148;11.542;2023-05-16T02:03:12;4.60;;;4.20;;
45011;SDS011;63444;48.148;11.542;2023-05-16T02:05:37;4.80;;;4.40;;
45011;SDS011;63444;48.148;11.542;2023-05-16T02:08:03;5.27;;;4.77;;
45011;SDS011;63444;48.148;11.542;2023-05-16T02:10:29;5.07;;;4.53;;
45011;SDS011;63444;48.148;11.542;2023-05-16T02:12:55;6.00;;;4.13;;
45011;SDS011;63444;48.148;11.542;2023-05-16T02:15:21;5.87;;;4.87;;
45011;SDS011;63444;48.148;11.542;2023-05-16T02:17:46;5.00;;;4.53;;
45011;SDS011;63444;48.148;11.542;2023-05-16T02:20:12;5.47;;;4.97;;
45011;SDS011;63444;48.148;11.542;2023-05-16T02:22:38;4.80;;;4.40;;
45011;SDS011;63444;48.148;11.542;2023-05-16T02:25:04;5.40;;;4.90;;
45011;SDS011;63444;48.148;11.542;2023-05-16T02:27:31;5.10;;;4.70;;
45011;SDS011;63444;48.148;11.542;2023-05-16T02:29:57;5.10;;;4.70;;
45011;SDS011;63444;48.148;11.542;2023-05-16T02:32:22;5.33;;;4.83;;
45011;SDS011;63444;48.148;11.542;2023-05-16T02:34:48;5.10;;;4.60;;
45011;SDS011;63444;48.148;11.542;2023-05-16T02:37:14;6.23;;;5.27;;
45011;SDS011;63444;48.148;11.542;2023-05-16T02:39:40;5.93;;;5.00;;
45011;SDS011;63444;48.148;11.542;2023-05-16T02:42:05;5.20;;;4.63;;
45011;SDS011;63444;48.148;11.542;2023-05-16T02:44:31;5.60;;;5.10;;
45011;SDS011;63444;48.148;11.542;2023-05-16T02:46:57;5.70;;;4.43;;
45011;SDS011;63444;48.148;11.542;2023-05-16T02:49:23;5.13;;;4.73;;
45011;SDS011;63444;48.148;11.542;2023-05-16T02:51:48;5.07;;;4.67;;
45011;SDS011;63444;48.148;11.542;2023-05-16T02:54:14;5.43;;;4.97;;
45011;SDS011;63444;48.148;11.542;2023-05-16T02:56:40;5.27;;;4.77;;
45011;SDS011;63444;48.148;11.542;2023-05-16T02:59:05;5.70;;;4.80;;
45011;SDS011;63444;48.148;11.542;2023-05-16T03:01:31;5.10;;;4.57;;
45011;SDS011;63444;48.148;11.542;2023-05-16T03:03:57;5.20;;;4.70;;
45011;SDS011;63444;48.148;11.542;2023-05-16T03:06:23;6.30;;;5.70;;
45011;SDS011;63444;48.148;11.542;2023-05-16T03:08:49;5.77;;;5.20;;
45011;SDS011;63444;48.148;11.542;2023-05-16T03:11:15;7.13;;;4.87;;
45011;SDS011;63444;48.148;11.542;2023-05-16T03:13:44;5.87;;;5.27;;
45011;SDS011;63444;48.148;11.542;2023-05-16T03:16:10;7.33;;;5.90;;
45011;SDS011;63444;48.148;11.542;2023-05-16T03:18:35;7.23;;;5.47;;
45011;SDS011;63444;48.148;11.542;2023-05-16T03:21:01;6.10;;;5.60;;
45011;SDS011;63444;48.148;11.542;2023-05-16T03:23:27;6.70;;;5.87;;
45011;SDS011;63444;48.148;11.542;2023-05-16T03:25:52;6.17;;;5.57;;
45011;SDS011;63444;48.148;11.542;2023-05-16T03:28:18;6.53;;;5.93;;
45011;SDS011;63444;48.148;11.542;2023-05-16T03:30:44;5.90;;;5.23;;
45011;SDS011;63444;48.148;11.542;2023-05-16T03:33:10;5.37;;;4.70;;
45011;SDS011;63444;48.148;11.542;2023-05-16T03:35:35;5.07;;;4.67;;
45011;SDS011;63444;48.148;11.542;2023-05-16T03:38:02;5.87;;;5.27;;
45011;SDS011;63444;48.148;11.542;2023-05-16T03:40:27;7.50;;;6.20;;
45011;SDS011;63444;48.148;11.542;2023-05-16T03:42:53;5.80;;;5.20;;
45011;SDS011;63444;48.148;11.542;2023-05-16T03:45:19;6.50;;;5.90;;
45011;SDS011;63444;48.148;11.542;2023-05-16T03:47:44;7.17;;;6.47;;
45011;SDS011;63444;48.148;11.542;2023-05-16T03:50:10;6.67;;;6.07;;
45011;SDS011;63444;48.148;11.542;2023-05-16T03:52:36;6.40;;;5.80;;
45011;SDS011;63444;48.148;11.542;2023-05-16T03:55:02;6.40;;;5.80;;
45011;SDS011;63444;48.148;11.542;2023-05-16T03:57:29;8.70;;;5.93;;
45011;SDS011;63444;48.148;11.542;2023-05-16T03:59:56;8.20;;;5.97;;
45011;SDS011;63444;48.148;11.542;2023-05-16T04:02:21;6.10;;;5.50;;
45011;SDS011;63444;48.148;11.542;2023-05-16T04:04:47;6.47;;;5.87;;
45011;SDS011;63444;48.148;11.542;2023-05-16T04:07:13;7.40;;;6.63;;
45011;SDS011;63444;48.148;11.542;2023-05-16T04:09:39;6.40;;;5.83;;
45011;SDS011;63444;48.148;11.542;2023-05-16T04:12:05;6.87;;;6.27;;
45011;SDS011;63444;48.148;11.542;2023-05-16T04:14:31;8.73;;;6.77;;
45011;SDS011;63444;48.148;11.542;2023-05-16T04:16:58;7.50;;;6.80;;
45011;SDS011;63444;48.148;11.542;2023-05-16T04:19:24;8.03;;;6.80;;
45011;SDS011;63444;48.148;11.542;2023-05-16T04:21:49;7.30;;;6.60;;
45011;SDS011;63444;48.148;11.542;2023-05-16T04:24:16;8.60;;;6.30;;
45011;SDS011;63444;48.148;11.542;2023-05-16T04:26:42;7.03;;;6.33;;
45011;SDS011;63444;48.148;11.542;2023-05-16T04:29:07;7.80;;;7.07;;
45011;SDS011;63444;48.148;11.542;2023-05-16T04:31:33;8.07;;;7.27;;
45011;SDS011;63444;48.148;11.542;2023-05-16T04:33:59;7.80;;;7.10;;
45011;SDS011;63444;48.148;11.542;2023-05-16T04:36:25;7.73;;;7.00;;
45011;SDS011;63444;48.148;11.542;2023-05-16T04:38:53;7.80;;;7.10;;
45011;SDS011;63444;48.148;11.542;2023-05-16T04:41:20;9.37;;;7.80;;
45011;SDS011;63444;48.148;11.542;2023-05-16T04:43:46;7.73;;;7.00;;
45011;SDS011;63444;48.148;11.542;2023-05-16T04:46:12;7.30;;;6.70;;
45011;SDS011;63444;48.148;11.542;2023-05-16T04:48:39;9.70;;;7.97;;
45011;SDS011;63444;48.148;11.542;2023-05-16T04:51:05;8.13;;;7.33;;
45011;SDS011;63444;48.148;11.542;2023-05-16T04:53:31;8.77;;;7.37;;
45011;SDS011;63444;48.148;11.542;2023-05-16T04:55:56;8.67;;;7.87;;
45011;SDS011;63444;48.148;11.542;2023-05-16T04:58:22;7.63;;;6.93;;
45011;SDS011;63444;48.148;11.542;2023-05-16T05:00:48;8.13;;;7.40;;
45011;SDS011;63444;48.148;11.542;2023-05-16T05:03:17;9.77;;;7.80;;
45011;SDS011;63444;48.148;11.542;2023-05-16T05:05:43;8.47;;;7.20;;
45011;SDS011;63444;48.148;11.542;2023-05-16T05:08:08;8.63;;;7.20;;
45011;SDS011;63444;48.148;11.542;2023-05-16T05:10:34;8.17;;;7.37;;
45011;SDS011;63444;48.148;11.542;2023-05-16T05:13:00;7.43;;;6.73;;
45011;SDS011;63444;48.148;11.542;2023-05-16T05:15:26;7.67;;;6.97;;
45011;SDS011;63444;48.148;11.542;2023-05-16T05:17:51;10.33;;;7.77;;
45011;SDS011;63444;48.148;11.542;2023-05-16T05:20:17;9.23;;;8.00;;
45011;SDS011;63444;48.148;11.542;2023-05-16T05:22:43;8.77;;;7.97;;
45011;SDS011;63444;48.148;11.542;2023-05-16T05:25:09;8.33;;;7.53;;
45011;SDS011;63444;48.148;11.542;2023-05-16T05:27:34;8.77;;;7.97;;
45011;SDS011;63444;48.148;11.542;2023-05-16T05:30:00;9.37;;;8.47;;
45011;SDS011;63444;48.148;11.542;2023-05-16T05:32:26;9.47;;;8.27;;
45011;SDS011;63444;48.148;11.542;2023-05-16T05:34:52;10.57;;;8.00;;
45011;SDS011;63444;48.148;11.542;2023-05-16T05:37:18;8.40;;;7.50;;
45011;SDS011;63444;48.148;11.542;2023-05-16T05:39:43;10.00;;;9.00;;
45011;SDS011;63444;48.148;11.542;2023-05-16T05:42:10;9.20;;;8.07;;
45011;SDS011;63444;48.148;11.542;2023-05-16T05:44:36;9.90;;;9.00;;
45011;SDS011;63444;48.148;11.542;2023-05-16T05:47:02;8.90;;;8.10;;
45011;SDS011;63444;48.148;11.542;2023-05-16T05:49:29;11.10;;;9.17;;
45011;SDS011;63444;48.148;11.542;2023-05-16T05:51:55;10.60;;;8.77;;
45011;SDS011;63444;48.148;11.542;2023-05-16T05:54:21;14.53;;;8.57;;
45011;SDS011;63444;48.148;11.542;2023-05-16T05:56:47;10.00;;;9.00;;
45011;SDS011;63444;48.148;11.542;2023-05-16T05:59:13;10.90;;;8.43;;
45011;SDS011;63444;48.148;11.542;2023-05-16T06:01:39;10.17;;;9.10;;
45011;SDS011;63444;48.148;11.542;2023-05-16T06:04:05;11.60;;;10.10;;
45011;SDS011;63444;48.148;11.542;2023-05-16T06:06:30;10.17;;;9.10;;
45011;SDS011;63444;48.148;11.542;2023-05-16T06:08:57;10.60;;;9.60;;
45011;SDS011;63444;48.148;11.542;2023-05-16T06:11:22;10.00;;;9.07;;
45011;SDS011;63444;48.148;11.542;2023-05-16T06:13:49;10.77;;;9.17;;
45011;SDS011;63444;48.148;11.542;2023-05-16T06:16:15;10.90;;;9.80;;
45011;SDS011;63444;48.148;11.542;2023-05-16T06:18:41;11.23;;;9.23;;
45011;SDS011;63444;48.148;11.542;2023-05-16T06:21:07;13.20;;;10.73;;
45011;SDS011;63444;48.148;11.542;2023-05-16T06:23:33;12.83;;;11.30;;
45011;SDS011;63444;48.148;11.542;2023-05-16T06:25:59;11.60;;;10.33;;
45011;SDS011;63444;48.148;11.542;2023-05-16T06:28:25;10.80;;;9.60;;
45011;SDS011;63444;48.148;11.542;2023-05-16T06:30:51;10.37;;;9.17;;
45011;SDS011;63444;48.148;11.542;2023-05-16T06:33:17;10.77;;;9.70;;
45011;SDS011;63444;48.148;11.542;2023-05-16T06:35:43;10.60;;;9.50;;
45011;SDS011;63444;48.148;11.542;2023-05-16T06:38:09;10.37;;;9.30;;
45011;SDS011;63444;48.148;11.542;2023-05-16T06:40:34;11.27;;;8.73;;
45011;SDS011;63444;48.148;11.542;2023-05-16T06:43:00;11.10;;;9.40;;
45011;SDS011;63444;48.148;11.542;2023-05-16T06:45:26;11.20;;;9.80;;
45011;SDS011;63444;48.148;11.542;2023-05-16T06:47:51;10.70;;;9.43;;
45011;SDS011;63444;48.148;11.542;2023-05-16T06:50:17;9.93;;;9.03;;
45011;SDS011;63444;48.148;11.542;2023-05-16T06:52:42;9.87;;;8.47;;
45011;SDS011;63444;48.148;11.542;2023-05-16T06:55:08;8.97;;;7.70;;
45011;SDS011;63444;48.148;11.542;2023-05-16T06:57:34;9.93;;;8.13;;
45011;SDS011;63444;48.148;11.542;2023-05-16T07:00:00;10.73;;;8.10;;
45011;SDS011;63444;48.148;11.542;2023-05-16T07:02:25;9.13;;;8.23;;
45011;SDS011;63444;48.148;11.542;2023-05-16T07:04:51;8.67;;;7.83;;
45011;SDS011;63444;48.148;11.542;2023-05-16T07:07:17;9.27;;;7.93;;
45011;SDS011;63444;48.148;11.542;2023-05-16T07:09:43;8.37;;;7.47;;
45011;SDS011;63444;48.148;11.542;2023-05-16T07:12:09;8.13;;;7.40;;
45011;SDS011;63444;48.148;11.542;2023-05-16T07:14:34;9.67;;;8.67;;
45011;SDS011;63444;48.148;11.542;2023-05-16T07:17:00;9.70;;;8.70;;
45011;SDS011;63444;48.148;11.542;2023-05-16T07:19:26;9.43;;;7.80;;
45011;SDS011;63444;48.148;11.542;2023-05-16T07:21:51;9.33;;;8.40;;
45011;SDS011;63444;48.148;11.542;2023-05-16T07:24:18;9.07;;;8.20;;
45011;SDS011;63444;48.148;11.542;2023-05-16T07:26:43;9.17;;;8.20;;
45011;SDS011;63444;48.148;11.542;2023-05-16T07:29:09;8.93;;;7.97;;
45011;SDS011;63444;48.148;11.542;2023-05-16T07:31:35;10.43;;;8.97;;
45011;SDS011;63444;48.148;11.542;2023-05-16T07:34:00;10.70;;;9.60;;
45011;SDS011;63444;48.148;11.542;2023-05-16T07:36:26;12.00;;;8.90;;
45011;SDS011;63444;48.148;11.542;2023-05-16T07:38:52;10.27;;;8.80;;
45011;SDS011;63444;48.148;11.542;2023-05-16T07:41:17;13.53;;;10.63;;
45011;SDS011;63444;48.148;11.542;2023-05-16T07:43:43;10.13;;;9.13;;
45011;SDS011;63444;48.148;11.542;2023-05-16T07:46:10;10.43;;;9.33;;
45011;SDS011;63444;48.148;11.542;2023-05-16T07:48:35;13.67;;;8.87;;
45011;SDS011;63444;48.148;11.542;2023-05-16T07:51:01;14.07;;;10.50;;
45011;SDS011;63444;48.148;11.542;2023-05-16T07:53:27;10.53;;;9.47;;
45011;SDS011;63444;48.148;11.542;2023-05-16T07:55:52;10.03;;;9.07;;
45011;SDS011;63444;48.148;11.542;2023-05-16T07:58:18;10.53;;;9.43;;
45011;SDS011;63444;48.148;11.542;2023-05-16T08:00:44;14.40;;;10.93;;
45011;SDS011;63444;48.148;11.542;2023-05-16T08:03:09;17.07;;;11.13;;
45011;SDS011;63444;48.148;11.542;2023-05-16T08:05:35;12.57;;;9.80;;
45011;SDS011;63444;48.148;11.542;2023-05-16T08:08:01;10.40;;;9.40;;
45011;SDS011;63444;48.148;11.542;2023-05-16T08:10:26;10.20;;;9.10;;
45011;SDS011;63444;48.148;11.542;2023-05-16T08:12:52;9.97;;;9.07;;
45011;SDS011;63444;48.148;11.542;2023-05-16T08:15:17;11.50;;;9.00;;
45011;SDS011;63444;48.148;11.542;2023-05-16T08:17:43;11.20;;;10.13;;
45011;SDS011;63444;48.148;11.542;2023-05-16T08:20:09;12.47;;;11.00;;
45011;SDS011;63444;48.148;11.542;2023-05-16T08:22:35;12.03;;;9.93;;
45011;SDS011;63444;48.148;11.542;2023-05-16T08:25:01;12.97;;;11.77;;
45011;SDS011;63444;48.148;11.542;2023-05-16T08:27:27;10.87;;;9.93;;
45011;SDS011;63444;48.148;11.542;2023-05-16T08:29:53;12.37;;;11.17;;
45011;SDS011;63444;48.148;11.542;2023-05-16T08:32:20;11.67;;;10.47;;
45011;SDS011;63444;48.148;11.542;2023-05-16T08:34:46;10.73;;;9.87;;
45011;SDS011;63444;48.148;11.542;2023-05-16T08:37:12;13.20;;;11.90;;
45011;SDS011;63444;48.148;11.542;2023-05-16T08:39:38;11.80;;;10.70;;
45011;SDS011;63444;48.148;11.542;2023-05-16T08:42:04;11.17;;;10.10;;
45011;SDS011;63444;48.148;11.542;2023-05-16T08:44:30;11.13;;;9.97;;
45011;SDS011;63444;48.148;11.542;2023-05-16T08:46:55;10.13;;;9.13;;
45011;SDS011;63444;48.148;11.542;2023-05-16T08:49:23;10.40;;;9.30;;
45011;SDS011;63444;48.148;11.542;2023-05-16T08:51:53;10.57;;;9.67;;
45011;SDS011;63444;48.148;11.542;2023-05-16T08:54:21;10.37;;;9.37;;
45011;SDS011;63444;48.148;11.542;2023-05-16T08:56:48;10.63;;;9.47;;
45011;SDS011;63444;48.148;11.542;2023-05-16T08:59:14;10.10;;;9.20;;
45011;SDS011;63444;48.148;11.542;2023-05-16T09:01:41;14.70;;;11.93;;
45011;SDS011;63444;48.148;11.542;2023-05-16T09:04:07;13.03;;;10.80;;
45011;SDS011;63444;48.148;11.542;2023-05-16T09:06:37;14.10;;;11.50;;
45011;SDS011;63444;48.148;11.542;2023-05-16T09:09:03;13.33;;;12.03;;
45011;SDS011;63444;48.148;11.542;2023-05-16T09:11:32;13.23;;;11.83;;
45011;SDS011;63444;48.148;11.542;2023-05-16T09:13:58;12.53;;;11.33;;
45011;SDS011;63444;48.148;11.542;2023-05-16T09:16:24;13.53;;;12.13;;
45011;SDS011;63444;48.148;11.542;2023-05-16T09:18:57;13.87;;;12.57;;
45011;SDS011;63444;48.148;11.542;2023-05-16T09:21:30;13.17;;;11.77;;
45011;SDS011;63444;48.148;11.542;2023-05-16T09:24:07;13.67;;;12.27;;
45011;SDS011;63444;48.148;11.542;2023-05-16T09:26:34;13.63;;;11.90;;
45011;SDS011;63444;48.148;11.542;2023-05-16T09:29:06;13.97;;;12.67;;
45011;SDS011;63444;48.148;11.542;2023-05-16T09:31:37;12.67;;;11.43;;
45011;SDS011;63444;48.148;11.542;2023-05-16T09:34:06;13.43;;;11.60;;
45011;SDS011;63444;48.148;11.542;2023-05-16T09:36:33;11.43;;;10.27;;
45011;SDS011;63444;48.148;11.542;2023-05-16T09:38:59;11.50;;;10.40;;
45011;SDS011;63444;48.148;11.542;2023-05-16T09:41:25;11.60;;;10.53;;
45011;SDS011;63444;48.148;11.542;2023-05-16T09:43:50;14.27;;;10.57;;
45011;SDS011;63444;48.148;11.542;2023-05-16T09:46:16;10.50;;;9.60;;
45011;SDS011;63444;48.148;11.542;2023-05-16T09:48:44;11.40;;;10.03;;
45011;SDS011;63444;48.148;11.542;2023-05-16T09:51:11;12.03;;;10.90;;
45011;SDS011;63444;48.148;11.542;2023-05-16T09:53:37;13.13;;;11.93;;
45011;SDS011;63444;48.148;11.542;2023-05-16T09:56:09;12.40;;;11.20;;
45011;SDS011;63444;48.148;11.542;2023-05-16T09:58:36;12.33;;;11.23;;
45011;SDS011;63444;48.148;11.542;2023-05-16T10:01:03;11.87;;;10.73;;
45011;SDS011;63444;48.148;11.542;2023-05-16T10:03:32;10.97;;;9.93;;
45011;SDS011;63444;48.148;11.542;2023-05-16T10:05:59;10.70;;;9.60;;
45011;SDS011;63444;48.148;11.542;2023-05-16T10:08:26;11.23;;;10.20;;
45011;SDS011;63444;48.148;11.542;2023-05-16T10:10:55;12.23;;;10.93;;
45011;SDS011;63444;48.148;11.542;2023-05-16T10:13:27;12.00;;;10.80;;
45011;SDS011;63444;48.148;11.542;2023-05-16T10:15:55;11.40;;;10.07;;
45011;SDS011;63444;48.148;11.542;2023-05-16T10:18:29;10.07;;;9.17;;
45011;SDS011;63444;48.148;11.542;2023-05-16T10:20:56;9.33;;;8.43;;
45011;SDS011;63444;48.148;11.542;2023-05-16T10:23:28;9.87;;;8.97;;
45011;SDS011;63444;48.148;11.542;2023-05-16T10:25:55;10.67;;;9.73;;
45011;SDS011;63444;48.148;11.542;2023-05-16T10:28:22;10.97;;;9.97;;
45011;SDS011;63444;48.148;11.542;2023-05-16T10:30:48;11.70;;;10.60;;
45011;SDS011;63444;48.148;11.542;2023-05-16T10:33:16;10.33;;;9.43;;
45011;SDS011;63444;48.148;11.542;2023-05-16T10:35:43;10.43;;;9.43;;
45011;SDS011;63444;48.148;11.542;2023-05-16T10:38:10;10.43;;;9.43;;
45011;SDS011;63444;48.148;11.542;2023-05-16T10:40:39;11.57;;;10.57;;
45011;SDS011;63444;48.148;11.542;2023-05-16T10:43:05;11.83;;;10.70;;
45011;SDS011;63444;48.148;11.542;2023-05-16T10:45:33;13.13;;;11.53;;
45011;SDS011;63444;48.148;11.542;2023-05-16T10:48:04;11.37;;;10.40;;
45011;SDS011;63444;48.148;11.542;2023-05-16T10:50:43;11.70;;;10.20;;
45011;SDS011;63444;48.148;11.542;2023-05-16T10:55:50;12.80;;;11.50;;
45011;SDS011;63444;48.148;11.542;2023-05-16T11:01:15;13.63;;;12.27;;
45011;SDS011;63444;48.148;11.542;2023-05-16T11:06:32;12.10;;;10.97;;
45011;SDS011;63444;48.148;11.542;2023-05-16T11:09:16;14.30;;;12.60;;
45011;SDS011;63444;48.148;11.542;2023-05-16T11:12:01;11.60;;;10.40;;
45011;SDS011;63444;48.148;11.542;2023-05-16T11:17:06;12.63;;;11.30;;
45011;SDS011;63444;48.148;11.542;2023-05-16T11:19:56;16.37;;;14.03;;
45011;SDS011;63444;48.148;11.542;2023-05-16T11:22:25;16.40;;;13.93;;
45011;SDS011;63444;48.148;11.542;2023-05-16T11:24:59;9.43;;;8.27;;
45011;SDS011;63444;48.148;11.542;2023-05-16T11:27:50;8.87;;;6.70;;
45011;SDS011;63444;48.148;11.542;2023-05-16T11:30:16;12.13;;;9.70;;
45011;SDS011;63444;48.148;11.542;2023-05-16T11:32:45;7.90;;;7.10;;
45011;SDS011;63444;48.148;11.542;2023-05-16T11:35:13;5.67;;;4.73;;
45011;SDS011;63444;48.148;11.542;2023-05-16T11:37:41;6.17;;;5.63;;
45011;SDS011;63444;48.148;11.542;2023-05-16T11:40:07;12.93;;;11.73;;
45011;SDS011;63444;48.148;11.542;2023-05-16T11:42:45;10.80;;;9.90;;
45011;SDS011;63444;48.148;11.542;2023-05-16T11:45:13;13.03;;;11.83;;
45011;SDS011;63444;48.148;11.542;2023-05-16T11:47:41;14.17;;;12.80;;
45011;SDS011;63444;48.148;11.542;2023-05-16T11:50:12;15.30;;;13.53;;
45011;SDS011;63444;48.148;11.542;2023-05-16T11:52:39;14.70;;;13.30;;
45011;SDS011;63444;48.148;11.542;2023-05-16T11:55:09;15.33;;;13.83;;
45011;SDS011;63444;48.148;11.542;2023-05-16T11:57:36;15.80;;;14.40;;
45011;SDS011;63444;48.148;11.542;2023-05-16T12:00:21;16.30;;;14.80;;
45011;SDS011;63444;48.148;11.542;2023-05-16T12:02:52;15.77;;;14.27;;
45011;SDS011;63444;48.148;11.542;2023-05-16T12:05:19;14.90;;;13.47;;
45011;SDS011;63444;48.148;11.542;2023-05-16T12:07:49;15.17;;;13.77;;
45011;SDS011;63444;48.148;11.542;2023-05-16T12:10:18;16.23;;;14.63;;
45011;SDS011;63444;48.148;11.542;2023-05-16T12:12:44;15.43;;;13.90;;
45011;SDS011;63444;48.148;11.542;2023-05-16T12:15:12;14.33;;;12.93;;
45011;SDS011;63444;48.148;11.542;2023-05-16T12:17:38;16.70;;;15.10;;
45011;SDS011;63444;48.148;11.542;2023-05-16T12:20:07;16.00;;;14.57;;
45011;SDS011;63444;48.148;11.542;2023-05-16T12:22:44;16.00;;;14.40;;
45011;SDS011;63444;48.148;11.542;2023-05-16T12:25:29;15.83;;;13.60;;
45011;SDS011;63444;48.148;11.542;2023-05-16T12:27:57;15.60;;;14.20;;
45011;SDS011;63444;48.148;11.542;2023-05-16T12:30:25;17.47;;;15.90;;
45011;SDS011;63444;48.148;11.542;2023-05-16T12:32:58;15.37;;;13.90;;
45011;SDS011;63444;48.148;11.542;2023-05-16T12:35:32;15.30;;;13.80;;
45011;SDS011;63444;48.148;11.542;2023-05-16T12:37:59;13.20;;;12.00;;
45011;SDS011;63444;48.148;11.542;2023-05-16T12:40:27;13.40;;;12.10;;
45011;SDS011;63444;48.148;11.542;2023-05-16T12:42:53;15.10;;;13.70;;
45011;SDS011;63444;48.148;11.542;2023-05-16T12:45:20;14.60;;;13.30;;
45011;SDS011;63444;48.148;11.542;2023-05-16T12:47:49;14.20;;;12.93;;
45011;SDS011;63444;48.148;11.542;2023-05-16T12:50:15;14.93;;;13.63;;
45011;SDS011;63444;48.148;11.542;2023-05-16T12:52:50;15.90;;;14.30;;
45011;SDS011;63444;48.148;11.542;2023-05-16T12:55:17;18.40;;;16.53;;
45011;SDS011;63444;48.148;11.542;2023-05-16T12:57:44;17.27;;;15.50;;
45011;SDS011;63444;48.148;11.542;2023-05-16T13:00:14;17.07;;;15.47;;
45011;SDS011;63444;48.148;11.542;2023-05-16T13:02:43;14.67;;;13.37;;
45011;SDS011;63444;48.148;11.542;2023-05-16T13:05:09;14.10;;;12.80;;
45011;SDS011;63444;48.148;11.542;2023-05-16T13:07:42;13.53;;;12.33;;
45011;SDS011;63444;48.148;11.542;2023-05-16T13:10:10;13.33;;;12.13;;
45011;SDS011;63444;48.148;11.542;2023-05-16T13:12:37;13.17;;;11.97;;
45011;SDS011;63444;48.148;11.542;2023-05-16T13:15:08;15.53;;;14.13;;
45011;SDS011;63444;48.148;11.542;2023-05-16T13:17:41;16.70;;;15.07;;
45011;SDS011;63444;48.148;11.542;2023-05-16T13:20:12;16.50;;;15.00;;
45011;SDS011;63444;48.148;11.542;2023-05-16T13:22:40;15.90;;;14.30;;
45011;SDS011;63444;48.148;11.542;2023-05-16T13:25:07;15.00;;;13.50;;
45011;SDS011;63444;48.148;11.542;2023-05-16T13:27:35;16.20;;;14.60;;
45011;SDS011;63444;48.148;11.542;2023-05-16T13:30:02;12.97;;;11.77;;
45011;SDS011;63444;48.148;11.542;2023-05-16T13:32:28;10.50;;;9.50;;
45011;SDS011;63444;48.148;11.542;2023-05-16T13:34:54;10.23;;;8.60;;
45011;SDS011;63444;48.148;11.542;2023-05-16T13:37:19;8.53;;;7.53;;
45011;SDS011;63444;48.148;11.542;2023-05-16T13:39:48;8.33;;;7.53;;
45011;SDS011;63444;48.148;11.542;2023-05-16T13:42:13;11.33;;;7.20;;
45011;SDS011;63444;48.148;11.542;2023-05-16T13:44:39;7.50;;;6.87;;
45011;SDS011;63444;48.148;11.542;2023-05-16T13:47:06;7.83;;;7.13;;
45011;SDS011;63444;48.148;11.542;2023-05-16T13:49:32;7.67;;;7.00;;
45011;SDS011;63444;48.148;11.542;2023-05-16T13:51:58;7.80;;;7.00;;
45011;SDS011;63444;48.148;11.542;2023-05-16T13:54:25;7.60;;;6.80;;
45011;SDS011;63444;48.148;11.542;2023-05-16T13:56:51;6.47;;;5.87;;
45011;SDS011;63444;48.148;11.542;2023-05-16T13:59:16;7.70;;;6.30;;
45011;SDS011;63444;48.148;11.542;2023-05-16T14:01:42;7.83;;;6.30;;
45011;SDS011;63444;48.148;11.542;2023-05-16T14:04:08;6.80;;;5.47;;
45011;SDS011;63444;48.148;11.542;2023-05-16T14:06:33;5.70;;;5.20;;
45011;SDS011;63444;48.148;11.542;2023-05-16T14:08:59;6.10;;;5.00;;
45011;SDS011;63444;48.148;11.542;2023-05-16T14:11:25;5.67;;;5.20;;
45011;SDS011;63444;48.148;11.542;2023-05-16T14:13:54;5.67;;;5.17;;
45011;SDS011;63444;48.148;11.542;2023-05-16T14:16:20;6.90;;;5.27;;
45011;SDS011;63444;48.148;11.542;2023-05-16T14:18:45;5.90;;;4.90;;
45011;SDS011;63444;48.148;11.542;2023-05-16T14:21:11;6.13;;;5.53;;
45011;SDS011;63444;48.148;11.542;2023-05-16T14:23:37;5.00;;;4.50;;
45011;SDS011;63444;48.148;11.542;2023-05-16T14:26:03;4.60;;;4.20;;
45011;SDS011;63444;48.148;11.542;2023-05-16T14:28:29;5.83;;;5.23;;
45011;SDS011;63444;48.148;11.542;2023-05-16T14:30:56;5.70;;;5.20;;
45011;SDS011;63444;48.148;11.542;2023-05-16T14:33:25;8.47;;;4.83;;
45011;SDS011;63444;48.148;11.542;2023-05-16T14:35:51;7.03;;;5.17;;
45011;SDS011;63444;48.148;11.542;2023-05-16T14:38:17;5.77;;;5.20;;
45011;SDS011;63444;48.148;11.542;2023-05-16T14:40:43;5.40;;;4.90;;
45011;SDS011;63444;48.148;11.542;2023-05-16T14:43:08;5.70;;;5.20;;
45011;SDS011;63444;48.148;11.542;2023-05-16T14:45:36;7.10;;;5.60;;
45011;SDS011;63444;48.148;11.542;2023-05-16T14:48:03;5.23;;;4.73;;
45011;SDS011;63444;48.148;11.542;2023-05-16T14:50:30;5.37;;;4.90;;